sensor_id;sensor_type;location;lat;lon;timestamp;P1;durP1;ratioP1;P2;durP2;ratioP2
38117;SDS011;23928;47.562;7.508;2023-12-20T00:02:16;17.00;;;9.77;;
38117;SDS011;23928;47.562;7.508;2023-12-20T00:04:41;13.30;;;9.70;;
38117;SDS011;23928;47.562;7.508;2023-12-20T00:07:07;15.67;;;9.67;;
38117;SDS011;23928;47.562;7.508;2023-12-20T00:09:32;15.00;;;10.70;;
38117;SDS011;23928;47.562;7.508;2023-12-20T00:11:58;16.27;;;9.60;;
38117;SDS011;23928;47.562;7.508;2023-12-20T00:14:24;14.90;;;9.67;;
38117;SDS011;23928;47.562;7.508;2023-12-20T00:16:49;15.93;;;9.03;;
38117;SDS011;23928;47.562;7.508;2023-12-20T00:19:15;15.77;;;8.93;;
38117;SDS011;23928;47.562;7.508;2023-12-20T00:21:40;14.37;;;8.30;;
38117;SDS011;23928;47.562;7.508;2023-12-20T00:24:06;16.27;;;9.20;;
38117;SDS011;23928;47.562;7.508;2023-12-20T00:26:31;14.00;;;9.03;;
38117;SDS011;23928;47.562;7.508;2023-12-20T00:28:57;19.10;;;9.77;;
38117;SDS011;23928;47.562;7.508;2023-12-20T00:31:22;17.17;;;9.93;;
38117;SDS011;23928;47.562;7.508;2023-12-20T00:33:48;21.90;;;11.27;;
38117;SDS011;23928;47.562;7.508;2023-12-20T00:36:14;19.43;;;10.80;;
38117;SDS011;23928;47.562;7.508;2023-12-20T00:38:39;16.50;;;8.83;;
38117;SDS011;23928;47.562;7.508;2023-12-20T00:41:05;13.60;;;9.70;;
38117;SDS011;23928;47.562;7.508;2023-12-20T00:43:31;13.97;;;9.53;;
38117;SDS011;23928;47.562;7.508;2023-12-20T00:45:56;16.73;;;9.30;;
38117;SDS011;23928;47.562;7.508;2023-12-20T00:48:22;14.17;;;9.63;;
38117;SDS011;23928;47.562;7.508;2023-12-20T00:50:48;16.20;;;9.23;;
38117;SDS011;23928;47.562;7.508;2023-12-20T00:53:13;14.80;;;9.70;;
38117;SDS011;23928;47.562;7.508;2023-12-20T00:55:39;15.50;;;8.83;;
38117;SDS011;23928;47.562;7.508;2023-12-20T00:58:05;14.13;;;8.77;;
38117;SDS011;23928;47.562;7.508;2023-12-20T01:00:31;13.63;;;9.70;;
38117;SDS011;23928;47.562;7.508;2023-12-20T01:02:56;13.90;;;9.20;;
38117;SDS011;23928;47.562;7.508;2023-12-20T01:05:23;13.40;;;8.53;;
38117;SDS011;23928;47.562;7.508;2023-12-20T01:07:48;12.73;;;8.40;;
38117;SDS011;23928;47.562;7.508;2023-12-20T01:10:14;17.50;;;9.47;;
38117;SDS011;23928;47.562;7.508;2023-12-20T01:12:40;14.73;;;9.43;;
38117;SDS011;23928;47.562;7.508;2023-12-20T01:15:05;13.63;;;9.40;;
38117;SDS011;23928;47.562;7.508;2023-12-20T01:17:31;15.33;;;9.73;;
38117;SDS011;23928;47.562;7.508;2023-12-20T01:19:57;14.70;;;10.00;;
38117;SDS011;23928;47.562;7.508;2023-12-20T01:22:23;15.23;;;9.53;;
38117;SDS011;23928;47.562;7.508;2023-12-20T01:24:48;12.63;;;8.87;;
38117;SDS011;23928;47.562;7.508;2023-12-20T01:27:14;15.63;;;9.03;;
38117;SDS011;23928;47.562;7.508;2023-12-20T01:29:42;12.27;;;8.10;;
38117;SDS011;23928;47.562;7.508;2023-12-20T01:32:07;11.93;;;7.97;;
38117;SDS011;23928;47.562;7.508;2023-12-20T01:34:33;10.23;;;7.60;;
38117;SDS011;23928;47.562;7.508;2023-12-20T01:36:58;15.60;;;9.00;;
38117;SDS011;23928;47.562;7.508;2023-12-20T01:39:25;10.47;;;7.10;;
38117;SDS011;23928;47.562;7.508;2023-12-20T01:41:50;12.80;;;8.70;;
38117;SDS011;23928;47.562;7.508;2023-12-20T01:44:16;18.17;;;10.80;;
38117;SDS011;23928;47.562;7.508;2023-12-20T01:46:41;17.33;;;10.60;;
38117;SDS011;23928;47.562;7.508;2023-12-20T01:49:07;23.57;;;13.13;;
38117;SDS011;23928;47.562;7.508;2023-12-20T01:51:33;28.93;;;14.20;;
38117;SDS011;23928;47.562;7.508;2023-12-20T01:53:59;20.20;;;12.90;;
38117;SDS011;23928;47.562;7.508;2023-12-20T01:56:26;22.30;;;11.93;;
38117;SDS011;23928;47.562;7.508;2023-12-20T01:58:53;17.77;;;11.37;;
38117;SDS011;23928;47.562;7.508;2023-12-20T02:01:20;17.73;;;10.57;;
38117;SDS011;23928;47.562;7.508;2023-12-20T02:03:46;20.70;;;11.20;;
38117;SDS011;23928;47.562;7.508;2023-12-20T02:06:12;15.73;;;9.97;;
38117;SDS011;23928;47.562;7.508;2023-12-20T02:08:38;16.23;;;10.03;;
38117;SDS011;23928;47.562;7.508;2023-12-20T02:11:04;15.57;;;9.87;;
38117;SDS011;23928;47.562;7.508;2023-12-20T02:13:30;12.70;;;8.67;;
38117;SDS011;23928;47.562;7.508;2023-12-20T02:15:56;13.07;;;9.37;;
38117;SDS011;23928;47.562;7.508;2023-12-20T02:18:22;12.33;;;9.13;;
38117;SDS011;23928;47.562;7.508;2023-12-20T02:20:47;12.93;;;9.10;;
38117;SDS011;23928;47.562;7.508;2023-12-20T02:23:13;13.77;;;8.90;;
38117;SDS011;23928;47.562;7.508;2023-12-20T02:25:38;15.43;;;9.03;;
38117;SDS011;23928;47.562;7.508;2023-12-20T02:28:04;13.67;;;9.03;;
38117;SDS011;23928;47.562;7.508;2023-12-20T02:30:31;13.33;;;8.67;;
38117;SDS011;23928;47.562;7.508;2023-12-20T02:32:57;13.67;;;8.73;;
38117;SDS011;23928;47.562;7.508;2023-12-20T02:35:24;13.20;;;8.53;;
38117;SDS011;23928;47.562;7.508;2023-12-20T02:37:50;13.53;;;8.87;;
38117;SDS011;23928;47.562;7.508;2023-12-20T02:40:16;12.60;;;8.67;;
38117;SDS011;23928;47.562;7.508;2023-12-20T02:42:41;15.90;;;9.47;;
38117;SDS011;23928;47.562;7.508;2023-12-20T02:45:07;11.67;;;8.67;;
38117;SDS011;23928;47.562;7.508;2023-12-20T02:47:33;12.20;;;8.43;;
38117;SDS011;23928;47.562;7.508;2023-12-20T02:49:58;12.97;;;8.63;;
38117;SDS011;23928;47.562;7.508;2023-12-20T02:52:24;13.17;;;8.73;;
38117;SDS011;23928;47.562;7.508;2023-12-20T02:54:50;11.17;;;8.13;;
38117;SDS011;23928;47.562;7.508;2023-12-20T02:57:15;17.77;;;10.37;;
38117;SDS011;23928;47.562;7.508;2023-12-20T02:59:41;17.83;;;10.83;;
38117;SDS011;23928;47.562;7.508;2023-12-20T03:02:07;17.53;;;10.10;;
38117;SDS011;23928;47.562;7.508;2023-12-20T03:04:32;13.67;;;9.57;;
38117;SDS011;23928;47.562;7.508;2023-12-20T03:06:58;13.20;;;9.57;;
38117;SDS011;23928;47.562;7.508;2023-12-20T03:09:23;14.47;;;9.23;;
38117;SDS011;23928;47.562;7.508;2023-12-20T03:11:49;15.50;;;9.53;;
38117;SDS011;23928;47.562;7.508;2023-12-20T03:14:15;15.17;;;9.63;;
38117;SDS011;23928;47.562;7.508;2023-12-20T03:16:40;14.83;;;9.80;;
38117;SDS011;23928;47.562;7.508;2023-12-20T03:19:06;14.73;;;9.20;;
38117;SDS011;23928;47.562;7.508;2023-12-20T03:21:31;15.00;;;10.10;;
38117;SDS011;23928;47.562;7.508;2023-12-20T03:23:57;18.90;;;10.77;;
38117;SDS011;23928;47.562;7.508;2023-12-20T03:26:23;14.93;;;10.17;;
38117;SDS011;23928;47.562;7.508;2023-12-20T03:28:48;16.17;;;10.23;;
38117;SDS011;23928;47.562;7.508;2023-12-20T03:31:14;14.83;;;9.97;;
38117;SDS011;23928;47.562;7.508;2023-12-20T03:33:39;16.47;;;10.33;;
38117;SDS011;23928;47.562;7.508;2023-12-20T03:36:05;12.33;;;9.33;;
38117;SDS011;23928;47.562;7.508;2023-12-20T03:38:31;13.53;;;9.13;;
38117;SDS011;23928;47.562;7.508;2023-12-20T03:40:56;14.97;;;9.87;;
38117;SDS011;23928;47.562;7.508;2023-12-20T03:43:22;13.57;;;9.90;;
38117;SDS011;23928;47.562;7.508;2023-12-20T03:45:48;15.97;;;9.63;;
38117;SDS011;23928;47.562;7.508;2023-12-20T03:48:13;14.93;;;10.07;;
38117;SDS011;23928;47.562;7.508;2023-12-20T03:50:39;14.07;;;9.00;;
38117;SDS011;23928;47.562;7.508;2023-12-20T03:53:04;13.57;;;9.67;;
38117;SDS011;23928;47.562;7.508;2023-12-20T03:55:30;14.13;;;10.57;;
38117;SDS011;23928;47.562;7.508;2023-12-20T03:57:55;11.67;;;9.30;;
38117;SDS011;23928;47.562;7.508;2023-12-20T04:00:21;12.53;;;9.93;;
38117;SDS011;23928;47.562;7.508;2023-12-20T04:02:47;16.63;;;9.77;;
38117;SDS011;23928;47.562;7.508;2023-12-20T04:05:12;14.17;;;9.80;;
38117;SDS011;23928;47.562;7.508;2023-12-20T04:07:38;18.93;;;10.97;;
38117;SDS011;23928;47.562;7.508;2023-12-20T04:10:04;15.40;;;10.33;;
38117;SDS011;23928;47.562;7.508;2023-12-20T04:12:30;13.37;;;9.23;;
38117;SDS011;23928;47.562;7.508;2023-12-20T04:14:57;16.50;;;11.27;;
38117;SDS011;23928;47.562;7.508;2023-12-20T04:17:22;15.73;;;10.33;;
38117;SDS011;23928;47.562;7.508;2023-12-20T04:19:48;14.17;;;10.07;;
38117;SDS011;23928;47.562;7.508;2023-12-20T04:22:14;15.70;;;10.33;;
38117;SDS011;23928;47.562;7.508;2023-12-20T04:24:40;14.70;;;10.43;;
38117;SDS011;23928;47.562;7.508;2023-12-20T04:27:07;13.33;;;9.40;;
38117;SDS011;23928;47.562;7.508;2023-12-20T04:29:33;15.30;;;10.53;;
38117;SDS011;23928;47.562;7.508;2023-12-20T04:31:59;13.27;;;9.57;;
38117;SDS011;23928;47.562;7.508;2023-12-20T04:34:25;14.83;;;9.83;;
38117;SDS011;23928;47.562;7.508;2023-12-20T04:36:51;15.30;;;10.30;;
38117;SDS011;23928;47.562;7.508;2023-12-20T04:39:16;16.70;;;10.37;;
38117;SDS011;23928;47.562;7.508;2023-12-20T04:41:42;11.57;;;8.80;;
38117;SDS011;23928;47.562;7.508;2023-12-20T04:44:08;11.77;;;8.37;;
38117;SDS011;23928;47.562;7.508;2023-12-20T04:46:33;11.17;;;9.23;;
38117;SDS011;23928;47.562;7.508;2023-12-20T04:48:59;14.93;;;9.97;;
38117;SDS011;23928;47.562;7.508;2023-12-20T04:51:24;12.10;;;8.23;;
38117;SDS011;23928;47.562;7.508;2023-12-20T04:53:50;11.93;;;8.60;;
38117;SDS011;23928;47.562;7.508;2023-12-20T04:56:15;11.57;;;8.50;;
38117;SDS011;23928;47.562;7.508;2023-12-20T04:58:42;12.67;;;9.00;;
38117;SDS011;23928;47.562;7.508;2023-12-20T05:01:08;12.70;;;8.03;;
38117;SDS011;23928;47.562;7.508;2023-12-20T05:03:34;11.77;;;8.63;;
38117;SDS011;23928;47.562;7.508;2023-12-20T05:06:00;10.67;;;8.10;;
38117;SDS011;23928;47.562;7.508;2023-12-20T05:08:26;12.13;;;8.63;;
38117;SDS011;23928;47.562;7.508;2023-12-20T05:10:52;11.77;;;8.80;;
38117;SDS011;23928;47.562;7.508;2023-12-20T05:13:19;10.53;;;8.27;;
38117;SDS011;23928;47.562;7.508;2023-12-20T05:15:45;8.93;;;7.00;;
38117;SDS011;23928;47.562;7.508;2023-12-20T05:18:10;9.13;;;6.30;;
38117;SDS011;23928;47.562;7.508;2023-12-20T05:20:36;8.27;;;5.53;;
38117;SDS011;23928;47.562;7.508;2023-12-20T05:23:02;7.37;;;5.50;;
38117;SDS011;23928;47.562;7.508;2023-12-20T05:25:27;5.53;;;4.67;;
38117;SDS011;23928;47.562;7.508;2023-12-20T05:27:53;3.60;;;2.80;;
38117;SDS011;23928;47.562;7.508;2023-12-20T05:30:19;2.10;;;1.37;;
38117;SDS011;23928;47.562;7.508;2023-12-20T05:32:44;0.57;;;0.57;;
38117;SDS011;23928;47.562;7.508;2023-12-20T05:35:10;0.40;;;0.40;;
38117;SDS011;23928;47.562;7.508;2023-12-20T05:37:35;1.37;;;0.47;;
38117;SDS011;23928;47.562;7.508;2023-12-20T05:40:01;0.80;;;0.80;;
38117;SDS011;23928;47.562;7.508;2023-12-20T05:42:27;0.57;;;0.57;;
38117;SDS011;23928;47.562;7.508;2023-12-20T05:44:53;0.30;;;0.30;;
38117;SDS011;23928;47.562;7.508;2023-12-20T05:47:18;0.40;;;0.40;;
38117;SDS011;23928;47.562;7.508;2023-12-20T05:49:44;0.73;;;0.33;;
38117;SDS011;23928;47.562;7.508;2023-12-20T05:52:10;0.50;;;0.50;;
38117;SDS011;23928;47.562;7.508;2023-12-20T05:54:36;0.43;;;0.43;;
38117;SDS011;23928;47.562;7.508;2023-12-20T05:57:01;3.37;;;0.40;;
38117;SDS011;23928;47.562;7.508;2023-12-20T05:59:27;0.40;;;0.40;;
38117;SDS011;23928;47.562;7.508;2023-12-20T06:01:52;0.43;;;0.43;;
38117;SDS011;23928;47.562;7.508;2023-12-20T06:04:18;0.40;;;0.40;;
38117;SDS011;23928;47.562;7.508;2023-12-20T06:06:44;0.97;;;0.60;;
38117;SDS011;23928;47.562;7.508;2023-12-20T06:09:10;0.60;;;0.60;;
38117;SDS011;23928;47.562;7.508;2023-12-20T06:11:36;0.80;;;0.60;;
38117;SDS011;23928;47.562;7.508;2023-12-20T06:14:02;0.80;;;0.67;;
38117;SDS011;23928;47.562;7.508;2023-12-20T06:16:28;1.57;;;0.80;;
38117;SDS011;23928;47.562;7.508;2023-12-20T06:18:53;1.13;;;0.90;;
38117;SDS011;23928;47.562;7.508;2023-12-20T06:21:19;1.10;;;0.70;;
38117;SDS011;23928;47.562;7.508;2023-12-20T06:23:45;1.10;;;0.60;;
38117;SDS011;23928;47.562;7.508;2023-12-20T06:26:10;0.50;;;0.50;;
38117;SDS011;23928;47.562;7.508;2023-12-20T06:28:36;1.20;;;0.77;;
38117;SDS011;23928;47.562;7.508;2023-12-20T06:31:01;0.90;;;0.90;;
38117;SDS011;23928;47.562;7.508;2023-12-20T06:33:28;0.60;;;0.60;;
38117;SDS011;23928;47.562;7.508;2023-12-20T06:35:55;1.80;;;0.80;;
38117;SDS011;23928;47.562;7.508;2023-12-20T06:38:21;0.70;;;0.70;;
38117;SDS011;23928;47.562;7.508;2023-12-20T06:40:47;1.80;;;1.00;;
38117;SDS011;23928;47.562;7.508;2023-12-20T06:43:12;1.20;;;1.10;;
38117;SDS011;23928;47.562;7.508;2023-12-20T06:45:38;1.00;;;0.90;;
38117;SDS011;23928;47.562;7.508;2023-12-20T06:48:04;0.90;;;0.90;;
38117;SDS011;23928;47.562;7.508;2023-12-20T06:50:30;0.70;;;0.70;;
38117;SDS011;23928;47.562;7.508;2023-12-20T06:52:56;1.07;;;1.00;;
38117;SDS011;23928;47.562;7.508;2023-12-20T06:55:21;1.13;;;1.10;;
38117;SDS011;23928;47.562;7.508;2023-12-20T06:57:47;1.27;;;1.10;;
38117;SDS011;23928;47.562;7.508;2023-12-20T07:00:12;2.10;;;1.30;;
38117;SDS011;23928;47.562;7.508;2023-12-20T07:02:38;3.37;;;1.40;;
38117;SDS011;23928;47.562;7.508;2023-12-20T07:05:04;1.40;;;1.30;;
38117;SDS011;23928;47.562;7.508;2023-12-20T07:07:30;1.60;;;1.50;;
38117;SDS011;23928;47.562;7.508;2023-12-20T07:09:55;1.50;;;1.40;;
38117;SDS011;23928;47.562;7.508;2023-12-20T07:12:21;1.20;;;1.10;;
38117;SDS011;23928;47.562;7.508;2023-12-20T07:14:46;1.20;;;1.20;;
38117;SDS011;23928;47.562;7.508;2023-12-20T07:17:12;1.47;;;1.37;;
38117;SDS011;23928;47.562;7.508;2023-12-20T07:19:40;1.50;;;1.40;;
38117;SDS011;23928;47.562;7.508;2023-12-20T07:22:06;1.60;;;1.50;;
38117;SDS011;23928;47.562;7.508;2023-12-20T07:24:32;1.53;;;1.43;;
38117;SDS011;23928;47.562;7.508;2023-12-20T07:26:58;1.40;;;1.30;;
38117;SDS011;23928;47.562;7.508;2023-12-20T07:29:24;1.20;;;1.10;;
38117;SDS011;23928;47.562;7.508;2023-12-20T07:31:50;1.80;;;1.50;;
38117;SDS011;23928;47.562;7.508;2023-12-20T07:34:17;3.60;;;1.60;;
38117;SDS011;23928;47.562;7.508;2023-12-20T07:36:43;3.20;;;2.43;;
38117;SDS011;23928;47.562;7.508;2023-12-20T07:39:08;1.33;;;1.23;;
38117;SDS011;23928;47.562;7.508;2023-12-20T07:41:35;1.93;;;1.83;;
38117;SDS011;23928;47.562;7.508;2023-12-20T07:44:00;1.17;;;1.10;;
38117;SDS011;23928;47.562;7.508;2023-12-20T07:46:26;3.87;;;1.53;;
38117;SDS011;23928;47.562;7.508;2023-12-20T07:48:51;1.30;;;1.20;;
38117;SDS011;23928;47.562;7.508;2023-12-20T07:51:17;1.90;;;1.80;;
38117;SDS011;23928;47.562;7.508;2023-12-20T07:53:43;1.50;;;1.40;;
38117;SDS011;23928;47.562;7.508;2023-12-20T07:56:15;2.67;;;1.20;;
38117;SDS011;23928;47.562;7.508;2023-12-20T07:58:42;1.77;;;1.50;;
38117;SDS011;23928;47.562;7.508;2023-12-20T08:01:07;2.13;;;1.70;;
38117;SDS011;23928;47.562;7.508;2023-12-20T08:03:33;2.00;;;1.80;;
38117;SDS011;23928;47.562;7.508;2023-12-20T08:05:59;1.73;;;1.63;;
38117;SDS011;23928;47.562;7.508;2023-12-20T08:08:25;1.70;;;1.60;;
38117;SDS011;23928;47.562;7.508;2023-12-20T08:10:51;2.10;;;1.53;;
38117;SDS011;23928;47.562;7.508;2023-12-20T08:13:16;1.87;;;1.60;;
38117;SDS011;23928;47.562;7.508;2023-12-20T08:15:42;3.10;;;1.93;;
38117;SDS011;23928;47.562;7.508;2023-12-20T08:18:07;2.43;;;2.23;;
38117;SDS011;23928;47.562;7.508;2023-12-20T08:20:33;2.10;;;1.90;;
38117;SDS011;23928;47.562;7.508;2023-12-20T08:22:59;2.40;;;1.80;;
38117;SDS011;23928;47.562;7.508;2023-12-20T08:25:24;1.60;;;1.50;;
38117;SDS011;23928;47.562;7.508;2023-12-20T08:27:50;1.70;;;1.60;;
38117;SDS011;23928;47.562;7.508;2023-12-20T08:30:15;1.60;;;1.50;;
38117;SDS011;23928;47.562;7.508;2023-12-20T08:32:45;8.40;;;2.63;;
38117;SDS011;23928;47.562;7.508;2023-12-20T08:35:11;1.83;;;1.73;;
38117;SDS011;23928;47.562;7.508;2023-12-20T08:37:36;1.87;;;1.77;;
38117;SDS011;23928;47.562;7.508;2023-12-20T08:40:02;3.33;;;1.83;;
38117;SDS011;23928;47.562;7.508;2023-12-20T08:42:28;2.60;;;1.67;;
38117;SDS011;23928;47.562;7.508;2023-12-20T08:44:56;1.80;;;1.67;;
38117;SDS011;23928;47.562;7.508;2023-12-20T08:47:23;1.90;;;1.80;;
38117;SDS011;23928;47.562;7.508;2023-12-20T08:49:49;1.80;;;1.70;;
38117;SDS011;23928;47.562;7.508;2023-12-20T08:52:15;2.43;;;2.23;;
38117;SDS011;23928;47.562;7.508;2023-12-20T08:54:40;3.20;;;2.20;;
38117;SDS011;23928;47.562;7.508;2023-12-20T08:57:06;2.07;;;1.87;;
38117;SDS011;23928;47.562;7.508;2023-12-20T08:59:32;2.60;;;2.00;;
38117;SDS011;23928;47.562;7.508;2023-12-20T09:01:57;2.57;;;2.17;;
38117;SDS011;23928;47.562;7.508;2023-12-20T09:04:23;2.27;;;2.07;;
38117;SDS011;23928;47.562;7.508;2023-12-20T09:06:49;2.40;;;2.17;;
38117;SDS011;23928;47.562;7.508;2023-12-20T09:09:14;2.70;;;2.30;;
38117;SDS011;23928;47.562;7.508;2023-12-20T09:11:40;2.87;;;2.67;;
38117;SDS011;23928;47.562;7.508;2023-12-20T09:14:06;2.80;;;2.43;;
38117;SDS011;23928;47.562;7.508;2023-12-20T09:16:32;2.90;;;2.60;;
38117;SDS011;23928;47.562;7.508;2023-12-20T09:18:58;2.40;;;2.20;;
38117;SDS011;23928;47.562;7.508;2023-12-20T09:21:23;2.83;;;2.53;;
38117;SDS011;23928;47.562;7.508;2023-12-20T09:23:49;2.90;;;2.60;;
38117;SDS011;23928;47.562;7.508;2023-12-20T09:26:15;2.47;;;2.27;;
38117;SDS011;23928;47.562;7.508;2023-12-20T09:28:40;2.30;;;2.10;;
38117;SDS011;23928;47.562;7.508;2023-12-20T09:31:06;2.23;;;2.03;;
38117;SDS011;23928;47.562;7.508;2023-12-20T09:33:32;2.83;;;2.53;;
38117;SDS011;23928;47.562;7.508;2023-12-20T09:35:58;2.33;;;2.13;;
38117;SDS011;23928;47.562;7.508;2023-12-20T09:38:24;2.87;;;2.63;;
38117;SDS011;23928;47.562;7.508;2023-12-20T09:40:50;3.93;;;2.30;;
38117;SDS011;23928;47.562;7.508;2023-12-20T09:43:19;3.00;;;2.27;;
38117;SDS011;23928;47.562;7.508;2023-12-20T09:45:46;2.57;;;2.20;;
38117;SDS011;23928;47.562;7.508;2023-12-20T09:48:13;2.00;;;1.80;;
38117;SDS011;23928;47.562;7.508;2023-12-20T09:50:42;2.63;;;2.10;;
38117;SDS011;23928;47.562;7.508;2023-12-20T09:53:09;2.80;;;1.90;;
38117;SDS011;23928;47.562;7.508;2023-12-20T09:55:37;2.93;;;1.90;;
38117;SDS011;23928;47.562;7.508;2023-12-20T09:58:04;2.40;;;2.20;;
38117;SDS011;23928;47.562;7.508;2023-12-20T10:00:31;4.03;;;2.07;;
38117;SDS011;23928;47.562;7.508;2023-12-20T10:02:58;3.13;;;2.00;;
38117;SDS011;23928;47.562;7.508;2023-12-20T10:05:28;2.93;;;2.43;;
38117;SDS011;23928;47.562;7.508;2023-12-20T10:07:55;6.07;;;2.43;;
38117;SDS011;23928;47.562;7.508;2023-12-20T10:10:21;3.30;;;2.50;;
38117;SDS011;23928;47.562;7.508;2023-12-20T10:15:29;4.57;;;2.60;;
38117;SDS011;23928;47.562;7.508;2023-12-20T10:17:54;3.03;;;2.60;;
38117;SDS011;23928;47.562;7.508;2023-12-20T10:20:21;4.37;;;2.47;;
38117;SDS011;23928;47.562;7.508;2023-12-20T10:22:46;6.37;;;2.83;;
38117;SDS011;23928;47.562;7.508;2023-12-20T10:25:12;3.77;;;3.20;;
38117;SDS011;23928;47.562;7.508;2023-12-20T10:27:38;5.80;;;2.60;;
38117;SDS011;23928;47.562;7.508;2023-12-20T10:30:03;2.60;;;2.40;;
38117;SDS011;23928;47.562;7.508;2023-12-20T10:32:29;3.57;;;2.40;;
38117;SDS011;23928;47.562;7.508;2023-12-20T10:34:56;2.93;;;2.40;;
38117;SDS011;23928;47.562;7.508;2023-12-20T10:37:22;9.50;;;2.57;;
38117;SDS011;23928;47.562;7.508;2023-12-20T10:39:51;4.00;;;2.57;;
38117;SDS011;23928;47.562;7.508;2023-12-20T10:42:21;2.77;;;2.30;;
38117;SDS011;23928;47.562;7.508;2023-12-20T10:44:50;5.67;;;2.63;;
38117;SDS011;23928;47.562;7.508;2023-12-20T10:47:16;4.90;;;2.60;;
38117;SDS011;23928;47.562;7.508;2023-12-20T10:49:42;4.07;;;2.23;;
38117;SDS011;23928;47.562;7.508;2023-12-20T10:52:09;2.70;;;2.30;;
38117;SDS011;23928;47.562;7.508;2023-12-20T10:54:36;3.93;;;2.57;;
38117;SDS011;23928;47.562;7.508;2023-12-20T10:57:03;4.00;;;2.47;;
38117;SDS011;23928;47.562;7.508;2023-12-20T10:59:31;4.77;;;2.50;;
38117;SDS011;23928;47.562;7.508;2023-12-20T11:01:58;3.83;;;2.13;;
38117;SDS011;23928;47.562;7.508;2023-12-20T11:04:31;3.00;;;2.33;;
38117;SDS011;23928;47.562;7.508;2023-12-20T11:07:23;7.57;;;2.70;;
38117;SDS011;23928;47.562;7.508;2023-12-20T11:10:13;3.00;;;2.50;;
38117;SDS011;23928;47.562;7.508;2023-12-20T11:15:13;5.03;;;2.77;;
38117;SDS011;23928;47.562;7.508;2023-12-20T11:17:40;4.17;;;2.40;;
38117;SDS011;23928;47.562;7.508;2023-12-20T11:20:09;4.57;;;2.90;;
38117;SDS011;23928;47.562;7.508;2023-12-20T11:22:38;6.03;;;2.97;;
38117;SDS011;23928;47.562;7.508;2023-12-20T11:25:16;4.03;;;2.70;;
38117;SDS011;23928;47.562;7.508;2023-12-20T11:27:42;3.90;;;2.90;;
38117;SDS011;23928;47.562;7.508;2023-12-20T11:30:08;3.23;;;2.77;;
38117;SDS011;23928;47.562;7.508;2023-12-20T11:32:35;4.60;;;2.70;;
38117;SDS011;23928;47.562;7.508;2023-12-20T11:35:16;5.70;;;3.00;;
38117;SDS011;23928;47.562;7.508;2023-12-20T11:37:43;2.93;;;2.33;;
38117;SDS011;23928;47.562;7.508;2023-12-20T11:40:15;4.97;;;2.50;;
38117;SDS011;23928;47.562;7.508;2023-12-20T11:42:43;3.10;;;2.30;;
38117;SDS011;23928;47.562;7.508;2023-12-20T11:45:13;2.70;;;2.33;;
38117;SDS011;23928;47.562;7.508;2023-12-20T11:47:41;2.40;;;2.20;;
38117;SDS011;23928;47.562;7.508;2023-12-20T11:50:09;4.40;;;2.30;;
38117;SDS011;23928;47.562;7.508;2023-12-20T11:52:34;2.27;;;1.93;;
38117;SDS011;23928;47.562;7.508;2023-12-20T11:55:00;3.07;;;2.20;;
38117;SDS011;23928;47.562;7.508;2023-12-20T11:57:26;2.90;;;2.07;;
38117;SDS011;23928;47.562;7.508;2023-12-20T11:59:51;1.47;;;1.37;;
38117;SDS011;23928;47.562;7.508;2023-12-20T12:02:17;3.80;;;1.60;;
38117;SDS011;23928;47.562;7.508;2023-12-20T12:04:43;2.63;;;1.63;;
38117;SDS011;23928;47.562;7.508;2023-12-20T12:07:08;4.00;;;1.50;;
38117;SDS011;23928;47.562;7.508;2023-12-20T12:09:34;3.47;;;1.50;;
38117;SDS011;23928;47.562;7.508;2023-12-20T12:12:01;3.57;;;1.60;;
38117;SDS011;23928;47.562;7.508;2023-12-20T12:14:27;2.30;;;1.57;;
38117;SDS011;23928;47.562;7.508;2023-12-20T12:16:53;6.53;;;2.17;;
38117;SDS011;23928;47.562;7.508;2023-12-20T12:19:25;1.40;;;1.20;;
38117;SDS011;23928;47.562;7.508;2023-12-20T12:21:51;4.57;;;1.60;;
38117;SDS011;23928;47.562;7.508;2023-12-20T12:24:42;3.53;;;1.50;;
38117;SDS011;23928;47.562;7.508;2023-12-20T12:27:09;3.27;;;1.50;;
38117;SDS011;23928;47.562;7.508;2023-12-20T12:29:36;4.43;;;1.60;;
38117;SDS011;23928;47.562;7.508;2023-12-20T12:32:08;3.67;;;1.53;;
38117;SDS011;23928;47.562;7.508;2023-12-20T12:34:34;3.63;;;1.70;;
38117;SDS011;23928;47.562;7.508;2023-12-20T12:37:01;4.90;;;1.40;;
38117;SDS011;23928;47.562;7.508;2023-12-20T12:39:27;5.20;;;1.40;;
38117;SDS011;23928;47.562;7.508;2023-12-20T12:41:55;1.17;;;0.97;;
38117;SDS011;23928;47.562;7.508;2023-12-20T12:44:21;3.30;;;1.17;;
38117;SDS011;23928;47.562;7.508;2023-12-20T12:46:48;2.37;;;1.20;;
38117;SDS011;23928;47.562;7.508;2023-12-20T12:49:19;3.83;;;1.30;;
38117;SDS011;23928;47.562;7.508;2023-12-20T12:51:46;2.63;;;1.50;;
38117;SDS011;23928;47.562;7.508;2023-12-20T12:54:12;4.73;;;1.77;;
38117;SDS011;23928;47.562;7.508;2023-12-20T12:56:38;2.23;;;1.20;;
38117;SDS011;23928;47.562;7.508;2023-12-20T12:59:04;4.73;;;1.67;;
38117;SDS011;23928;47.562;7.508;2023-12-20T13:01:30;4.33;;;1.33;;
38117;SDS011;23928;47.562;7.508;2023-12-20T13:03:56;3.87;;;1.30;;
38117;SDS011;23928;47.562;7.508;2023-12-20T13:06:22;5.10;;;1.60;;
38117;SDS011;23928;47.562;7.508;2023-12-20T13:08:48;10.80;;;1.53;;
38117;SDS011;23928;47.562;7.508;2023-12-20T13:11:14;4.33;;;1.50;;
38117;SDS011;23928;47.562;7.508;2023-12-20T13:13:39;3.80;;;1.43;;
38117;SDS011;23928;47.562;7.508;2023-12-20T13:16:05;5.23;;;1.70;;
38117;SDS011;23928;47.562;7.508;2023-12-20T13:18:31;6.47;;;2.70;;
38117;SDS011;23928;47.562;7.508;2023-12-20T13:20:56;6.60;;;1.87;;
38117;SDS011;23928;47.562;7.508;2023-12-20T13:23:22;4.63;;;2.00;;
38117;SDS011;23928;47.562;7.508;2023-12-20T13:25:47;5.87;;;2.73;;
38117;SDS011;23928;47.562;7.508;2023-12-20T13:28:13;8.77;;;2.47;;
38117;SDS011;23928;47.562;7.508;2023-12-20T13:30:39;8.10;;;2.20;;
38117;SDS011;23928;47.562;7.508;2023-12-20T13:33:05;25.00;;;10.50;;
38117;SDS011;23928;47.562;7.508;2023-12-20T13:35:31;6.03;;;2.10;;
38117;SDS011;23928;47.562;7.508;2023-12-20T13:37:57;8.40;;;3.37;;
38117;SDS011;23928;47.562;7.508;2023-12-20T13:40:24;3.77;;;1.97;;
38117;SDS011;23928;47.562;7.508;2023-12-20T13:42:50;4.03;;;1.80;;
38117;SDS011;23928;47.562;7.508;2023-12-20T13:45:15;4.33;;;1.67;;
38117;SDS011;23928;47.562;7.508;2023-12-20T13:47:41;4.80;;;2.00;;
38117;SDS011;23928;47.562;7.508;2023-12-20T13:50:07;2.63;;;1.90;;
38117;SDS011;23928;47.562;7.508;2023-12-20T13:52:33;4.23;;;2.13;;
38117;SDS011;23928;47.562;7.508;2023-12-20T13:54:58;7.00;;;2.43;;
38117;SDS011;23928;47.562;7.508;2023-12-20T13:57:24;5.00;;;2.57;;
38117;SDS011;23928;47.562;7.508;2023-12-20T13:59:49;8.37;;;3.30;;
38117;SDS011;23928;47.562;7.508;2023-12-20T14:02:15;2.97;;;1.70;;
38117;SDS011;23928;47.562;7.508;2023-12-20T14:04:41;3.47;;;1.50;;
38117;SDS011;23928;47.562;7.508;2023-12-20T14:07:07;5.40;;;1.80;;
38117;SDS011;23928;47.562;7.508;2023-12-20T14:09:34;6.53;;;1.73;;
38117;SDS011;23928;47.562;7.508;2023-12-20T14:12:00;3.87;;;1.30;;
38117;SDS011;23928;47.562;7.508;2023-12-20T14:14:25;6.57;;;1.30;;
38117;SDS011;23928;47.562;7.508;2023-12-20T14:16:51;2.07;;;1.10;;
38117;SDS011;23928;47.562;7.508;2023-12-20T14:19:17;2.00;;;1.00;;
38117;SDS011;23928;47.562;7.508;2023-12-20T14:21:42;3.30;;;1.40;;
38117;SDS011;23928;47.562;7.508;2023-12-20T14:24:10;2.27;;;1.20;;
38117;SDS011;23928;47.562;7.508;2023-12-20T14:26:40;4.37;;;1.77;;
38117;SDS011;23928;47.562;7.508;2023-12-20T14:29:06;4.23;;;1.73;;
38117;SDS011;23928;47.562;7.508;2023-12-20T14:31:32;4.73;;;1.27;;
38117;SDS011;23928;47.562;7.508;2023-12-20T14:33:58;3.40;;;1.17;;
38117;SDS011;23928;47.562;7.508;2023-12-20T14:36:24;7.60;;;1.47;;
38117;SDS011;23928;47.562;7.508;2023-12-20T14:38:50;5.40;;;1.27;;
38117;SDS011;23928;47.562;7.508;2023-12-20T14:41:15;2.80;;;1.30;;